Time;durP1;ratioP1;P1;durP2;ratioP2;P2;SDS_P1;SDS_P2;PMS_P1;PMS_P2;Temp;Humidity;BMP_temperature;BMP_pressure;BME280_temperature;BME280_humidity;BME280_pressure;Samples;Min_cycle;Max_cycle;Signal;HPM_P1;HPM_P2
2021/06/02 00:03:18;;;;;;;;;;;17.40;67.50;;;;;;10572684;28;19924;-66
2021/06/02 00:08:19;;;;;;;;;;;17.40;68.00;;;;;;10569662;28;19953;-65
2021/06/02 00:13:21;;;;;;;;;;;17.30;68.40;;;;;;10563791;28;19931;-68
2021/06/02 00:18:24;;;;;;;;;;;17.20;69.30;;;;;;10560777;28;19924;-71
2021/06/02 00:23:25;;;;;;;;;;;17.20;69.80;;;;;;10557309;28;20015;-66
2021/06/02 00:28:27;;;;;;;;;;;17.10;70.20;;;;;;10578895;27;19955;-66
2021/06/02 00:33:31;;;;;;;;;;;16.90;70.60;;;;;;10570676;28;20019;-66
2021/06/02 00:38:33;;;;;;;;;;;16.90;71.60;;;;;;10578713;28;20042;-65
2021/06/02 00:43:34;;;;;;;;;;;16.90;72.20;;;;;;10569989;28;20384;-68
2021/06/02 00:48:37;;;;;;;;;;;16.90;72.50;;;;;;10571612;28;20031;-65
2021/06/02 00:53:38;;;;;;;;;;;17.00;73.00;;;;;;10563838;28;19945;-64
2021/06/02 00:58:42;;;;;;;;;;;16.90;72.90;;;;;;10572963;28;20014;-67
2021/06/02 01:03:45;;;;;;;;;;;16.90;73.60;;;;;;10566976;28;19928;-68
2021/06/02 01:08:47;;;;;;;;;;;16.20;73.70;;;;;;10561443;28;20014;-66
2021/06/02 01:13:49;;;;;;;;;;;16.90;74.70;;;;;;10577112;28;20006;-65
2021/06/02 01:18:51;;;;;;;;;;;16.80;75.80;;;;;;10559056;28;20009;-66
2021/06/02 01:23:56;;;;;;;;;;;16.80;76.50;;;;;;10560778;27;19930;-64
2021/06/02 01:28:57;;;;;;;;;;;16.60;77.10;;;;;;10564480;28;19924;-66
2021/06/02 01:34:04;;;;;;;;;;;16.60;77.70;;;;;;10562053;28;19989;-65
2021/06/02 01:39:24;;;;;;;;;;;16.50;78.20;;;;;;10573317;28;19939;-66
2021/06/02 01:44:41;;;;;;;;;;;16.50;78.80;;;;;;10563349;28;20007;-69
2021/06/02 01:49:57;;;;;;;;;;;16.40;80.00;;;;;;10573743;27;20378;-71
2021/06/02 01:55:13;;;;;;;;;;;15.70;81.00;;;;;;10560683;28;19989;-66
2021/06/02 02:00:40;;;;;;;;;;;16.30;83.30;;;;;;10560955;28;20387;-67
2021/06/02 02:05:58;;;;;;;;;;;16.20;85.30;;;;;;10573432;28;20019;-66
2021/06/02 02:11:06;;;;;;;;;;;16.10;88.20;;;;;;10560769;28;19946;-66
2021/06/02 02:16:14;;;;;;;;;;;16.30;90.40;;;;;;10560983;28;19930;-65
2021/06/02 02:21:25;;;;;;;;;;;16.00;91.20;;;;;;10569428;28;19931;-67
2021/06/02 02:26:27;;;;;;;;;;;16.00;92.30;;;;;;10568055;28;19974;-68
2021/06/02 02:31:43;;;;;;;;;;;15.90;93.30;;;;;;10557640;28;19931;-67
2021/06/02 02:36:46;;;;;;;;;;;15.80;94.20;;;;;;10562010;28;19934;-66
2021/06/02 02:41:59;;;;;;;;;;;15.70;95.40;;;;;;10574461;28;19955;-68
2021/06/02 02:47:04;;;;;;;;;;;15.60;96.40;;;;;;10565919;28;20010;-65
2021/06/02 02:52:08;;;;;;;;;;;15.50;97.30;;;;;;10560096;28;20002;-65
2021/06/02 02:57:14;;;;;;;;;;;15.50;98.20;;;;;;10552889;28;19924;-65
2021/06/02 03:02:19;;;;;;;;;;;15.40;99.00;;;;;;10552074;28;20415;-65
2021/06/02 03:07:21;;;;;;;;;;;15.40;99.80;;;;;;10559709;28;19975;-65
2021/06/02 03:12:25;;;;;;;;;;;15.30;99.90;;;;;;10556830;28;19928;-65
2021/06/02 03:17:29;;;;;;;;;;;15.20;99.90;;;;;;10543429;28;19931;-64
2021/06/02 03:22:39;;;;;;;;;;;15.20;99.90;;;;;;10564581;28;19924;-65
2021/06/02 03:27:48;;;;;;;;;;;15.10;99.90;;;;;;10572323;28;19924;-66
2021/06/02 03:33:02;;;;;;;;;;;15.10;99.90;;;;;;10575939;28;19932;-67
2021/06/02 03:38:09;;;;;;;;;;;15.00;99.90;;;;;;10569824;28;19928;-64
2021/06/02 03:43:16;;;;;;;;;;;15.00;99.90;;;;;;10555471;28;20342;-65
2021/06/02 03:48:35;;;;;;;;;;;15.00;99.90;;;;;;10572747;28;19924;-65
2021/06/02 03:53:47;;;;;;;;;;;15.00;99.90;;;;;;10556956;28;19923;-65
2021/06/02 03:58:51;;;;;;;;;;;15.10;99.90;;;;;;10575762;28;19934;-67
2021/06/02 04:04:01;;;;;;;;;;;15.10;99.90;;;;;;10558995;28;20015;-65
2021/06/02 04:09:04;;;;;;;;;;;15.20;99.90;;;;;;10567144;28;19931;-67
2021/06/02 04:14:06;;;;;;;;;;;15.40;99.90;;;;;;10577317;28;19924;-68
2021/06/02 04:19:09;;;;;;;;;;;15.80;99.90;;;;;;10552899;28;19924;-64
2021/06/02 04:24:11;;;;;;;;;;;15.90;99.90;;;;;;10559970;28;20390;-66
2021/06/02 04:29:13;;;;;;;;;;;16.20;99.90;;;;;;10562487;28;19928;-64
2021/06/02 04:34:15;;;;;;;;;;;16.90;99.90;;;;;;10568408;28;19928;-68
2021/06/02 04:39:18;;;;;;;;;;;19.50;94.30;;;;;;10580701;28;19924;-66
2021/06/02 04:44:22;;;;;;;;;;;21.50;85.50;;;;;;10580132;28;19928;-69
2021/06/02 04:49:28;;;;;;;;;;;23.10;74.80;;;;;;10571429;28;19924;-67
2021/06/02 04:54:47;;;;;;;;;;;24.60;66.10;;;;;;10572883;28;19931;-70
2021/06/02 05:00:02;;;;;;;;;;;25.60;60.10;;;;;;10579889;28;19968;-65
2021/06/02 05:05:18;;;;;;;;;;;26.50;55.80;;;;;;10553314;28;19924;-67
2021/06/02 05:10:38;;;;;;;;;;;27.10;52.90;;;;;;10556405;28;19931;-69
2021/06/02 05:15:58;;;;;;;;;;;27.50;50.30;;;;;;10554054;28;19928;-66
2021/06/02 05:27:05;;;;;;;;;;;29.00;46.00;;;;;;10545023;28;19920;-65
2021/06/02 05:32:22;;;;;;;;;;;29.60;44.50;;;;;;10569477;28;19976;-66
2021/06/02 05:37:35;;;;;;;;;;;30.30;43.50;;;;;;10572412;28;19932;-65
2021/06/02 05:42:49;;;;;;;;;;;30.20;41.80;;;;;;10563446;28;19924;-66
2021/06/02 05:48:03;;;;;;;;;;;31.10;41.20;;;;;;10578114;28;19929;-66
2021/06/02 05:53:36;;;;;;;;;;;33.80;41.90;;;;;;10561262;28;20042;-69
2021/06/02 05:58:56;;;;;;;;;;;31.50;39.50;;;;;;10560230;27;19977;-72
2021/06/02 06:04:12;;;;;;;;;;;32.10;38.90;;;;;;10541590;28;20027;-66
2021/06/02 06:09:37;;;;;;;;;;;32.80;37.80;;;;;;10536532;28;19928;-67
2021/06/02 06:15:03;;;;;;;;;;;33.40;37.10;;;;;;10563607;28;20028;-68
2021/06/02 06:20:29;;;;;;;;;;;33.70;36.20;;;;;;10550682;28;20269;-69
2021/06/02 06:25:34;;;;;;;;;;;34.40;35.70;;;;;;10551124;28;19931;-69
2021/06/02 06:30:39;;;;;;;;;;;35.00;35.10;;;;;;10569352;28;19928;-68
2021/06/02 06:35:42;;;;;;;;;;;36.10;34.50;;;;;;10561393;28;19975;-67
2021/06/02 06:40:43;;;;;;;;;;;34.00;31.60;;;;;;10562986;28;20014;-68
2021/06/02 06:45:46;;;;;;;;;;;36.50;31.90;;;;;;10572211;28;20023;-69
2021/06/02 06:50:48;;;;;;;;;;;34.60;30.40;;;;;;10571853;28;19955;-69
2021/06/02 06:55:51;;;;;;;;;;;36.90;31.90;;;;;;10569315;28;20428;-68
2021/06/02 07:00:53;;;;;;;;;;;37.30;31.30;;;;;;10576562;28;19956;-68
2021/06/02 07:05:55;;;;;;;;;;;37.80;31.70;;;;;;10564432;27;20028;-69
2021/06/02 07:10:57;;;;;;;;;;;38.10;30.60;;;;;;10575797;28;19924;-69
2021/06/02 07:16:01;;;;;;;;;;;37.80;30.70;;;;;;10548332;28;20288;-69
2021/06/02 07:21:03;;;;;;;;;;;38.10;30.70;;;;;;10546670;28;20031;-71
2021/06/02 07:26:05;;;;;;;;;;;38.50;30.10;;;;;;10545868;27;19928;-68
2021/06/02 07:31:08;;;;;;;;;;;38.50;30.30;;;;;;10551240;28;19928;-67
2021/06/02 07:36:10;;;;;;;;;;;38.30;30.50;;;;;;10547138;28;20368;-68
2021/06/02 07:41:12;;;;;;;;;;;38.80;30.40;;;;;;10552223;28;20343;-64
2021/06/02 07:46:15;;;;;;;;;;;38.80;30.50;;;;;;10569649;28;19984;-67
2021/06/02 07:51:16;;;;;;;;;;;39.20;30.20;;;;;;10576775;27;19944;-67
2021/06/02 07:56:17;;;;;;;;;;;39.00;30.20;;;;;;10580464;28;20493;-66
2021/06/02 08:01:19;;;;;;;;;;;39.20;30.40;;;;;;10565795;28;19972;-64
2021/06/02 08:06:21;;;;;;;;;;;38.70;30.10;;;;;;10568309;28;19979;-68
2021/06/02 08:11:22;;;;;;;;;;;38.60;30.00;;;;;;10571019;28;20391;-66
2021/06/02 08:16:25;;;;;;;;;;;38.10;30.50;;;;;;10578436;28;20030;-65
2021/06/02 08:21:26;;;;;;;;;;;38.30;30.40;;;;;;10579192;28;19954;-66
2021/06/02 08:26:27;;;;;;;;;;;38.20;30.50;;;;;;10574680;27;19924;-68
2021/06/02 08:31:29;;;;;;;;;;;38.40;30.20;;;;;;10562168;28;19930;-66
2021/06/02 08:36:31;;;;;;;;;;;37.90;30.20;;;;;;10561641;27;19971;-65
2021/06/02 08:41:32;;;;;;;;;;;38.00;30.70;;;;;;10567380;28;19928;-66
2021/06/02 08:46:35;;;;;;;;;;;38.10;31.00;;;;;;10575172;28;19939;-66
2021/06/02 08:51:36;;;;;;;;;;;38.10;29.80;;;;;;10572081;27;19967;-66
2021/06/02 08:56:42;;;;;;;;;;;37.70;30.50;;;;;;10573383;28;19959;-65
2021/06/02 09:01:45;;;;;;;;;;;37.70;29.80;;;;;;10578227;28;20445;-65
2021/06/02 09:06:47;;;;;;;;;;;37.70;29.50;;;;;;10564040;28;19927;-71
2021/06/02 09:11:49;;;;;;;;;;;37.70;30.30;;;;;;10568134;28;20397;-66
2021/06/02 09:16:53;;;;;;;;;;;38.20;29.10;;;;;;10558388;28;19924;-67
2021/06/02 09:21:56;;;;;;;;;;;38.10;29.80;;;;;;10565892;28;19932;-66
2021/06/02 09:26:57;;;;;;;;;;;39.10;28.80;;;;;;10570898;27;19923;-66
2021/06/02 09:31:59;;;;;;;;;;;38.70;28.50;;;;;;10565564;27;20861;-68
2021/06/02 09:37:04;;;;;;;;;;;38.80;29.10;;;;;;10577287;28;19924;-69
2021/06/02 09:42:16;;;;;;;;;;;38.40;29.00;;;;;;10558267;28;20337;-66
2021/06/02 09:47:18;;;;;;;;;;;38.30;29.20;;;;;;10577842;28;19924;-66
2021/06/02 09:52:37;;;;;;;;;;;37.70;29.20;;;;;;10582286;27;19928;-66
2021/06/02 09:57:38;;;;;;;;;;;37.70;29.60;;;;;;10572849;28;19924;-65
2021/06/02 10:02:43;;;;;;;;;;;38.60;29.00;;;;;;10563653;28;21295;-66
2021/06/02 10:07:44;;;;;;;;;;;39.00;28.40;;;;;;10572597;28;19986;-66
2021/06/02 10:12:59;;;;;;;;;;;39.10;28.10;;;;;;10576235;28;19923;-68
2021/06/02 10:18:02;;;;;;;;;;;38.90;28.30;;;;;;10562539;28;19980;-68
2021/06/02 10:23:03;;;;;;;;;;;39.10;28.60;;;;;;10573326;28;19928;-67
2021/06/02 10:28:05;;;;;;;;;;;39.40;26.80;;;;;;10564433;28;19931;-66
2021/06/02 10:33:08;;;;;;;;;;;38.70;26.80;;;;;;10573953;28;20023;-67
2021/06/02 10:38:10;;;;;;;;;;;38.70;27.20;;;;;;10582799;28;19927;-67
2021/06/02 10:43:13;;;;;;;;;;;38.90;26.60;;;;;;10570912;28;19923;-66
2021/06/02 10:48:16;;;;;;;;;;;39.40;26.70;;;;;;10580014;28;19984;-66
2021/06/02 10:53:21;;;;;;;;;;;38.90;26.60;;;;;;10590812;27;19923;-66
2021/06/02 10:58:25;;;;;;;;;;;38.10;27.00;;;;;;10579059;27;20009;-66
2021/06/02 11:03:28;;;;;;;;;;;38.10;27.60;;;;;;10567870;28;19935;-66
2021/06/02 11:08:48;;;;;;;;;;;37.80;26.60;;;;;;10573945;28;20019;-66
2021/06/02 11:14:04;;;;;;;;;;;37.30;27.20;;;;;;10570005;28;19931;-68
2021/06/02 11:19:12;;;;;;;;;;;37.10;27.30;;;;;;10579498;28;19924;-64
2021/06/02 11:24:33;;;;;;;;;;;37.50;27.30;;;;;;10570178;28;19965;-66
2021/06/02 11:29:34;;;;;;;;;;;37.60;27.30;;;;;;10577824;28;19927;-66
2021/06/02 11:34:37;;;;;;;;;;;38.00;27.20;;;;;;10580492;28;20057;-66
2021/06/02 11:39:39;;;;;;;;;;;38.30;26.90;;;;;;10573406;28;20295;-67
2021/06/02 11:44:40;;;;;;;;;;;38.30;26.70;;;;;;10561073;28;19924;-67
2021/06/02 11:49:43;;;;;;;;;;;37.70;27.00;;;;;;10576071;28;19924;-70
2021/06/02 11:54:48;;;;;;;;;;;37.70;27.20;;;;;;10577564;28;20329;-66
2021/06/02 11:59:49;;;;;;;;;;;37.90;26.80;;;;;;10575837;28;19968;-64
2021/06/02 12:04:52;;;;;;;;;;;37.40;27.10;;;;;;10570561;28;20014;-68
2021/06/02 12:09:54;;;;;;;;;;;37.20;27.10;;;;;;10577207;28;20018;-67
2021/06/02 12:14:56;;;;;;;;;;;37.60;27.00;;;;;;10550583;27;19924;-67
2021/06/02 12:19:59;;;;;;;;;;;37.60;26.60;;;;;;10569989;28;19924;-65
2021/06/02 12:25:01;;;;;;;;;;;37.80;26.20;;;;;;10562835;27;19976;-68
2021/06/02 12:30:04;;;;;;;;;;;37.60;26.10;;;;;;10567921;27;20019;-67
2021/06/02 12:35:22;;;;;;;;;;;38.10;26.20;;;;;;10564668;27;19946;-66
2021/06/02 12:40:23;;;;;;;;;;;38.30;25.80;;;;;;10560095;28;19934;-64
2021/06/02 12:45:25;;;;;;;;;;;37.60;26.30;;;;;;10571586;28;19938;-66
2021/06/02 12:50:38;;;;;;;;;;;37.80;26.50;;;;;;10567958;27;19928;-66
2021/06/02 12:55:41;;;;;;;;;;;38.00;26.20;;;;;;10569236;28;20291;-65
2021/06/02 13:00:44;;;;;;;;;;;38.30;26.10;;;;;;10567976;27;20340;-64
2021/06/02 13:05:47;;;;;;;;;;;38.00;26.20;;;;;;10575632;28;19968;-66
2021/06/02 13:10:48;;;;;;;;;;;38.20;26.40;;;;;;10552299;28;20014;-64
2021/06/02 13:15:54;;;;;;;;;;;38.40;25.90;;;;;;10549401;28;19930;-64
2021/06/02 13:20:57;;;;;;;;;;;38.20;25.90;;;;;;10562823;28;19935;-66
2021/06/02 13:25:59;;;;;;;;;;;38.70;25.90;;;;;;10574658;28;20016;-64
2021/06/02 13:31:01;;;;;;;;;;;38.90;25.30;;;;;;10548723;28;20018;-71
2021/06/02 13:36:05;;;;;;;;;;;38.60;25.20;;;;;;10550722;28;19928;-68
2021/06/02 13:41:06;;;;;;;;;;;38.30;25.40;;;;;;10550360;28;19928;-64
2021/06/02 13:46:10;;;;;;;;;;;37.90;25.50;;;;;;10569841;27;19928;-67
2021/06/02 13:51:23;;;;;;;;;;;37.80;25.70;;;;;;10581020;27;19966;-68
2021/06/02 13:56:26;;;;;;;;;;;37.40;25.70;;;;;;10565560;28;20014;-65
2021/06/02 14:01:27;;;;;;;;;;;37.00;25.60;;;;;;10561415;28;20481;-68
2021/06/02 14:06:30;;;;;;;;;;;36.50;25.50;;;;;;10563284;28;20398;-67
2021/06/02 14:11:31;;;;;;;;;;;36.40;25.70;;;;;;10568287;28;19993;-68
2021/06/02 14:16:32;;;;;;;;;;;36.80;25.60;;;;;;10563677;28;19924;-66
2021/06/02 14:21:35;;;;;;;;;;;37.00;25.30;;;;;;10577210;28;20137;-68
2021/06/02 14:26:37;;;;;;;;;;;37.00;25.50;;;;;;10576919;28;19924;-65
2021/06/02 14:31:39;;;;;;;;;;;36.90;25.30;;;;;;10570764;28;19967;-67
2021/06/02 14:36:42;;;;;;;;;;;36.90;25.20;;;;;;10576592;28;19930;-69
2021/06/02 14:41:44;;;;;;;;;;;35.00;24.60;;;;;;10555013;28;19960;-70
2021/06/02 14:46:45;;;;;;;;;;;36.40;25.50;;;;;;10564638;28;20061;-68
2021/06/02 14:51:47;;;;;;;;;;;36.00;25.80;;;;;;10578054;28;20431;-66
2021/06/02 14:56:48;;;;;;;;;;;36.30;25.60;;;;;;10567789;28;19967;-67
2021/06/02 15:01:50;;;;;;;;;;;36.50;25.80;;;;;;10557452;28;19930;-66
2021/06/02 15:06:52;;;;;;;;;;;36.70;25.50;;;;;;10575408;28;20068;-67
2021/06/02 15:11:53;;;;;;;;;;;35.90;25.90;;;;;;10560033;28;19928;-70
2021/06/02 15:16:55;;;;;;;;;;;35.80;26.00;;;;;;10573531;28;20299;-72
2021/06/02 15:21:57;;;;;;;;;;;35.60;25.80;;;;;;10564605;28;19932;-70
2021/06/02 15:27:00;;;;;;;;;;;35.60;25.70;;;;;;10569041;28;19931;-69
2021/06/02 15:32:02;;;;;;;;;;;36.00;25.50;;;;;;10573249;28;19927;-67
2021/06/02 15:37:04;;;;;;;;;;;35.20;25.70;;;;;;10581867;28;19934;-71
2021/06/02 15:42:06;;;;;;;;;;;35.20;26.10;;;;;;10548352;28;19924;-69
2021/06/02 15:47:07;;;;;;;;;;;35.20;26.00;;;;;;10576578;27;20347;-67
2021/06/02 15:52:10;;;;;;;;;;;34.90;26.00;;;;;;10584077;27;20014;-70
2021/06/02 15:57:14;;;;;;;;;;;34.60;26.30;;;;;;10581210;28;20291;-69
2021/06/02 16:02:16;;;;;;;;;;;34.30;26.60;;;;;;10570957;28;19963;-68
2021/06/02 16:07:19;;;;;;;;;;;34.50;26.30;;;;;;10571041;28;20476;-68
2021/06/02 16:12:20;;;;;;;;;;;34.20;26.40;;;;;;10564187;28;19928;-69
2021/06/02 16:17:21;;;;;;;;;;;33.90;26.40;;;;;;10545528;28;20062;-68
2021/06/02 16:22:26;;;;;;;;;;;33.40;26.80;;;;;;10546043;28;19924;-69
2021/06/02 16:27:27;;;;;;;;;;;33.10;26.80;;;;;;10575481;28;19948;-68
2021/06/02 16:32:30;;;;;;;;;;;33.20;26.70;;;;;;10575658;28;19963;-69
2021/06/02 16:37:33;;;;;;;;;;;33.00;26.90;;;;;;10567880;28;19924;-69
2021/06/02 16:42:34;;;;;;;;;;;32.30;27.00;;;;;;10568322;28;20006;-68
2021/06/02 16:47:35;;;;;;;;;;;32.10;27.30;;;;;;10559958;28;20034;-68
2021/06/02 16:52:37;;;;;;;;;;;32.10;27.30;;;;;;10580452;27;19923;-68
2021/06/02 16:57:40;;;;;;;;;;;31.90;27.50;;;;;;10575556;28;20462;-68
2021/06/02 17:02:41;;;;;;;;;;;31.80;27.70;;;;;;10568774;28;19951;-71
2021/06/02 17:07:44;;;;;;;;;;;31.70;27.80;;;;;;10559138;28;19959;-71
2021/06/02 17:12:45;;;;;;;;;;;31.70;30.10;;;;;;10571935;28;19961;-69
2021/06/02 17:17:49;;;;;;;;;;;31.30;30.70;;;;;;10554435;28;19924;-68
2021/06/02 17:22:54;;;;;;;;;;;30.90;32.90;;;;;;10562677;28;19949;-69
2021/06/02 17:27:56;;;;;;;;;;;30.50;34.00;;;;;;10576639;28;19930;-69
2021/06/02 17:32:58;;;;;;;;;;;30.40;34.30;;;;;;10561803;28;19923;-67
2021/06/02 17:38:01;;;;;;;;;;;30.20;34.00;;;;;;10572223;27;19934;-67
2021/06/02 17:43:03;;;;;;;;;;;30.00;34.00;;;;;;10564717;28;19962;-69
2021/06/02 17:48:06;;;;;;;;;;;30.00;34.50;;;;;;10557989;28;19995;-68
2021/06/02 17:53:11;;;;;;;;;;;29.80;34.80;;;;;;10572137;27;19976;-64
2021/06/02 17:58:16;;;;;;;;;;;29.60;34.80;;;;;;10571610;28;19931;-67
2021/06/02 18:03:18;;;;;;;;;;;29.50;35.20;;;;;;10563253;28;20296;-69
2021/06/02 18:08:21;;;;;;;;;;;29.30;36.10;;;;;;10570146;28;20232;-69
2021/06/02 18:13:24;;;;;;;;;;;29.10;36.30;;;;;;10564266;28;20014;-67
2021/06/02 18:18:29;;;;;;;;;;;29.00;36.40;;;;;;10572892;28;19934;-66
2021/06/02 18:23:33;;;;;;;;;;;28.60;37.30;;;;;;10570130;28;19923;-63
2021/06/02 18:28:36;;;;;;;;;;;28.20;37.60;;;;;;10569786;28;20356;-63
2021/06/02 18:33:37;;;;;;;;;;;27.90;38.10;;;;;;10565461;28;20006;-63
2021/06/02 18:38:40;;;;;;;;;;;27.70;38.20;;;;;;10571515;28;19930;-63
2021/06/02 18:43:41;;;;;;;;;;;27.50;38.40;;;;;;10572798;28;19934;-61
2021/06/02 18:48:42;;;;;;;;;;;27.30;40.00;;;;;;10575442;28;19930;-62
2021/06/02 18:53:45;;;;;;;;;;;27.00;39.60;;;;;;10576937;28;19971;-64
2021/06/02 18:58:46;;;;;;;;;;;26.80;39.30;;;;;;10573915;28;20001;-61
2021/06/02 19:03:47;;;;;;;;;;;26.80;39.80;;;;;;10577675;28;20470;-62
2021/06/02 19:08:50;;;;;;;;;;;26.80;40.10;;;;;;10561383;27;20379;-63
2021/06/02 19:13:52;;;;;;;;;;;26.70;41.30;;;;;;10563179;28;20340;-62
2021/06/02 19:18:53;;;;;;;;;;;26.50;42.80;;;;;;10561268;28;19935;-65
2021/06/02 19:23:56;;;;;;;;;;;26.20;43.00;;;;;;10574067;27;20014;-63
2021/06/02 19:28:58;;;;;;;;;;;26.10;43.30;;;;;;10556075;28;19924;-64
2021/06/02 19:34:00;;;;;;;;;;;25.90;43.80;;;;;;10576296;28;20023;-64
2021/06/02 19:39:02;;;;;;;;;;;25.90;44.10;;;;;;10566569;28;19931;-63
2021/06/02 19:44:04;;;;;;;;;;;25.80;45.10;;;;;;10566239;28;19924;-63
2021/06/02 19:49:05;;;;;;;;;;;25.60;45.50;;;;;;10561979;27;20030;-63
2021/06/02 19:54:08;;;;;;;;;;;25.20;46.30;;;;;;10564577;27;19931;-63
2021/06/02 19:59:09;;;;;;;;;;;24.90;47.20;;;;;;10564830;28;19923;-62
2021/06/02 20:04:11;;;;;;;;;;;24.70;47.90;;;;;;10568835;28;19924;-63
2021/06/02 20:09:13;;;;;;;;;;;24.50;48.90;;;;;;10566756;28;20368;-64
2021/06/02 20:14:15;;;;;;;;;;;24.40;49.30;;;;;;10555467;28;19931;-62
2021/06/02 20:19:16;;;;;;;;;;;24.30;49.60;;;;;;10559745;28;19963;-62
2021/06/02 20:24:18;;;;;;;;;;;24.10;50.30;;;;;;10576311;28;20022;-64
2021/06/02 20:29:23;;;;;;;;;;;24.00;50.70;;;;;;10562782;28;19924;-63
2021/06/02 20:34:27;;;;;;;;;;;23.90;51.00;;;;;;10563501;28;19934;-63
2021/06/02 20:39:30;;;;;;;;;;;23.70;51.50;;;;;;10554289;28;19924;-63
2021/06/02 20:44:33;;;;;;;;;;;23.50;52.10;;;;;;10550667;28;19928;-63
2021/06/02 20:49:35;;;;;;;;;;;23.30;52.90;;;;;;10546480;28;19930;-64
2021/06/02 20:54:38;;;;;;;;;;;23.30;52.80;;;;;;10549293;28;19938;-62
2021/06/02 20:59:41;;;;;;;;;;;23.20;53.40;;;;;;10553666;28;19930;-64
2021/06/02 21:04:43;;;;;;;;;;;23.00;53.50;;;;;;10562777;28;20387;-62
2021/06/02 21:09:46;;;;;;;;;;;22.90;53.90;;;;;;10574939;28;19928;-64
2021/06/02 21:14:47;;;;;;;;;;;22.80;53.90;;;;;;10580796;28;19928;-62
2021/06/02 21:19:49;;;;;;;;;;;22.80;56.10;;;;;;10567130;28;19950;-62
2021/06/02 21:24:51;;;;;;;;;;;23.00;54.50;;;;;;10579073;27;19931;-63
2021/06/02 21:29:52;;;;;;;;;;;22.90;54.90;;;;;;10567918;27;20035;-62
2021/06/02 21:34:53;;;;;;;;;;;22.90;54.50;;;;;;10567970;28;19930;-62
2021/06/02 21:39:56;;;;;;;;;;;22.90;55.10;;;;;;10545104;28;19923;-62
2021/06/02 21:44:57;;;;;;;;;;;22.80;55.50;;;;;;10552623;28;20371;-62
2021/06/02 21:49:58;;;;;;;;;;;22.70;55.90;;;;;;10568917;28;19973;-63
2021/06/02 21:55:00;;;;;;;;;;;22.60;56.00;;;;;;10563325;27;20421;-63
2021/06/02 22:00:05;;;;;;;;;;;22.40;57.00;;;;;;10562828;28;19923;-62
2021/06/02 22:05:07;;;;;;;;;;;22.40;57.60;;;;;;10559425;28;20386;-62
2021/06/02 22:10:10;;;;;;;;;;;22.30;58.10;;;;;;10559256;28;19934;-62
2021/06/02 22:15:11;;;;;;;;;;;21.00;58.00;;;;;;10557415;28;19927;-62
2021/06/02 22:20:13;;;;;;;;;;;22.10;58.30;;;;;;10563429;28;19977;-62
2021/06/02 22:25:16;;;;;;;;;;;22.10;59.60;;;;;;10552299;28;20018;-61
2021/06/02 22:30:18;;;;;;;;;;;22.10;60.00;;;;;;10555334;28;19927;-62
2021/06/02 22:35:21;;;;;;;;;;;22.00;60.70;;;;;;10573908;28;19931;-62
2021/06/02 22:40:23;;;;;;;;;;;23.70;62.30;;;;;;10564299;28;20355;-63
2021/06/02 22:45:25;;;;;;;;;;;22.00;61.70;;;;;;10572738;28;19930;-61
2021/06/02 22:50:28;;;;;;;;;;;22.10;62.70;;;;;;10571922;28;19927;-62
2021/06/02 22:55:30;;;;;;;;;;;22.30;62.70;;;;;;10580358;28;19924;-62
2021/06/02 23:00:36;;;;;;;;;;;20.70;63.10;;;;;;10578047;28;19977;-62
2021/06/02 23:05:38;;;;;;;;;;;22.10;64.60;;;;;;10576324;28;19927;-64
2021/06/02 23:10:42;;;;;;;;;;;22.10;64.80;;;;;;10580813;28;19970;-63
2021/06/02 23:15:43;;;;;;;;;;;22.20;64.50;;;;;;10572048;28;19934;-63
2021/06/02 23:20:44;;;;;;;;;;;22.60;64.60;;;;;;10573428;28;20418;-62
2021/06/02 23:25:48;;;;;;;;;;;21.90;64.50;;;;;;10566298;28;20453;-62
2021/06/02 23:30:49;;;;;;;;;;;21.60;67.00;;;;;;10579262;28;20431;-63
2021/06/02 23:35:50;;;;;;;;;;;21.40;67.80;;;;;;10583035;28;20367;-63
2021/06/02 23:40:52;;;;;;;;;;;21.30;68.30;;;;;;10583668;28;20396;-62
2021/06/02 23:45:54;;;;;;;;;;;21.30;68.60;;;;;;10580056;28;19924;-62
2021/06/02 23:50:56;;;;;;;;;;;21.30;69.60;;;;;;10582411;28;19927;-63
2021/06/02 23:55:58;;;;;;;;;;;21.10;69.80;;;;;;10572093;28;20400;-62
